Time;durP1;ratioP1;P1;durP2;ratioP2;P2;SDS_P1;SDS_P2;PMS_P1;PMS_P2;Temp;Humidity;BMP_temperature;BMP_pressure;BME280_temperature;BME280_humidity;BME280_pressure;Samples;Min_cycle;Max_cycle;Signal;HPM_P1;HPM_P2
2022/07/12 00:01:19;;;;;;;2.70;1.17;;;16.50;99.90;;;;;;5037762;28;20033;-61
2022/07/12 00:03:44;;;;;;;1.70;1.30;;;16.50;99.90;;;;;;5039583;28;20029;-61
2022/07/12 00:06:10;;;;;;;1.38;1.10;;;16.40;99.90;;;;;;5037303;28;20071;-60
2022/07/12 00:08:37;;;;;;;1.55;1.45;;;16.30;99.90;;;;;;5045376;28;20025;-61
2022/07/12 00:11:03;;;;;;;1.20;1.10;;;16.30;99.90;;;;;;5049568;28;20193;-61
2022/07/12 00:13:29;;;;;;;2.10;1.30;;;16.20;99.90;;;;;;5049816;28;20496;-61
2022/07/12 00:15:56;;;;;;;1.95;1.30;;;16.30;99.90;;;;;;5042291;28;20086;-60
2022/07/12 00:18:22;;;;;;;2.33;1.40;;;16.20;99.90;;;;;;5045331;28;20037;-61
2022/07/12 00:20:48;;;;;;;2.42;1.50;;;16.10;99.90;;;;;;5043069;28;20816;-60
2022/07/12 00:23:14;;;;;;;1.50;1.40;;;16.10;99.90;;;;;;5034137;28;20072;-60
2022/07/12 00:25:40;;;;;;;1.55;1.30;;;16.10;99.90;;;;;;5041125;28;20025;-60
2022/07/12 00:28:06;;;;;;;2.03;1.42;;;16.10;99.90;;;;;;5052251;28;20023;-61
2022/07/12 00:30:32;;;;;;;2.22;1.45;;;16.20;99.90;;;;;;5049155;28;20032;-60
2022/07/12 00:32:57;;;;;;;1.48;1.38;;;16.10;99.90;;;;;;5040568;28;20662;-61
2022/07/12 00:35:23;;;;;;;1.73;1.33;;;16.00;99.90;;;;;;5051554;28;20027;-61
2022/07/12 00:37:48;;;;;;;1.50;1.10;;;15.90;99.90;;;;;;5053201;28;20863;-61
2022/07/12 00:40:14;;;;;;;1.75;1.30;;;15.90;99.90;;;;;;5051691;28;20660;-61
2022/07/12 00:42:39;;;;;;;2.33;1.50;;;15.90;99.90;;;;;;5055615;28;20099;-59
2022/07/12 00:45:07;;;;;;;2.28;1.40;;;15.90;99.90;;;;;;5054046;28;20025;-60
2022/07/12 00:47:44;;;;;;;2.38;1.10;;;15.90;99.90;;;;;;5044251;28;20115;-61
2022/07/12 00:50:16;;;;;;;1.92;1.50;;;15.90;99.90;;;;;;5050124;28;20652;-60
2022/07/12 00:52:44;;;;;;;1.67;1.40;;;15.90;99.90;;;;;;5043336;28;20051;-61
2022/07/12 00:55:10;;;;;;;2.63;1.33;;;15.90;99.90;;;;;;5051464;28;20021;-60
2022/07/12 00:57:37;;;;;;;4.50;1.33;;;15.80;99.90;;;;;;5039903;28;20994;-61
2022/07/12 01:00:06;;;;;;;2.35;1.17;;;15.80;99.90;;;;;;5048770;28;20036;-60
2022/07/12 01:02:33;;;;;;;3.20;1.20;;;15.80;99.90;;;;;;5047776;28;20620;-61
2022/07/12 01:04:59;;;;;;;2.20;1.30;;;15.50;99.90;;;;;;5041750;28;20168;-61
2022/07/12 01:07:26;;;;;;;2.47;1.30;;;15.80;99.90;;;;;;5050176;28;20451;-60
2022/07/12 01:09:53;;;;;;;1.40;1.30;;;15.90;99.90;;;;;;5050291;28;20016;-61
2022/07/12 01:12:20;;;;;;;1.50;1.25;;;15.80;99.90;;;;;;5044316;28;20055;-60
2022/07/12 01:14:47;;;;;;;1.77;1.30;;;15.90;99.90;;;;;;5047529;28;20440;-61
2022/07/12 01:17:13;;;;;;;1.55;1.23;;;15.80;99.90;;;;;;5043712;28;20032;-60
2022/07/12 01:19:39;;;;;;;1.95;1.38;;;15.80;99.90;;;;;;5043717;28;20086;-61
2022/07/12 01:22:10;;;;;;;2.30;1.60;;;15.80;99.90;;;;;;5045381;28;20041;-60
2022/07/12 01:24:36;;;;;;;1.55;1.45;;;15.70;99.90;;;;;;5052038;28;20068;-61
2022/07/12 01:27:04;;;;;;;1.50;1.30;;;15.70;99.90;;;;;;5052094;28;20029;-60
2022/07/12 01:29:31;;;;;;;2.08;1.30;;;15.70;99.90;;;;;;5046832;28;20040;-61
2022/07/12 01:32:24;;;;;;;2.72;1.40;;;15.60;99.90;;;;;;5045075;28;20029;-61
2022/07/12 01:34:43;;;;;;;3.72;1.20;;;15.60;99.90;;;;;;5046208;28;20036;-60
2022/07/12 01:37:09;;;;;;;3.80;1.10;;;15.60;99.90;;;;;;5049429;28;20016;-61
2022/07/12 01:39:35;;;;;;;2.55;1.58;;;15.50;99.90;;;;;;5045741;28;20040;-61
2022/07/12 01:42:01;;;;;;;2.28;1.55;;;15.60;99.90;;;;;;5054218;28;20064;-60
2022/07/12 01:44:27;;;;;;;1.85;1.20;;;15.60;99.90;;;;;;5046044;28;20125;-61
2022/07/12 01:46:52;;;;;;;1.63;1.20;;;15.50;99.90;;;;;;5046034;28;20356;-61
2022/07/12 01:49:18;;;;;;;1.48;1.17;;;15.50;99.90;;;;;;5040599;28;20037;-60
2022/07/12 01:51:43;;;;;;;2.67;1.60;;;15.60;99.90;;;;;;5047222;28;20028;-60
2022/07/12 01:54:09;;;;;;;2.03;1.40;;;15.60;99.90;;;;;;5046492;28;20040;-60
2022/07/12 01:56:36;;;;;;;2.05;1.40;;;15.50;99.90;;;;;;5052852;28;20472;-61
2022/07/12 01:59:01;;;;;;;1.65;1.45;;;15.40;99.90;;;;;;5039215;28;20036;-60
2022/07/12 02:01:28;;;;;;;2.20;1.40;;;15.40;99.90;;;;;;5040830;28;20045;-60
2022/07/12 02:03:54;;;;;;;2.20;1.20;;;15.50;99.90;;;;;;5050768;28;20136;-60
2022/07/12 02:06:20;;;;;;;3.65;1.27;;;15.40;99.90;;;;;;5046349;28;20174;-60
2022/07/12 02:08:45;;;;;;;1.30;1.20;;;15.40;99.90;;;;;;5045406;28;20052;-60
2022/07/12 02:11:11;;;;;;;3.03;1.40;;;15.50;99.90;;;;;;5041284;28;20021;-61
2022/07/12 02:13:37;;;;;;;1.63;1.20;;;15.30;99.90;;;;;;5052814;28;20040;-61
2022/07/12 02:16:04;;;;;;;1.25;1.13;;;15.20;99.90;;;;;;5040876;28;20029;-60
2022/07/12 02:18:32;;;;;;;1.65;1.23;;;15.20;99.90;;;;;;5045095;28;20028;-61
2022/07/12 02:20:58;;;;;;;1.20;1.10;;;15.30;99.90;;;;;;5045826;28;20035;-60
2022/07/12 02:23:23;;;;;;;1.30;1.20;;;15.40;99.90;;;;;;5030182;28;20719;-60
2022/07/12 02:25:49;;;;;;;1.88;1.17;;;15.20;99.90;;;;;;5039049;28;20056;-61
2022/07/12 02:28:14;;;;;;;2.17;1.33;;;15.20;99.90;;;;;;5045373;28;20029;-60
2022/07/12 02:30:40;;;;;;;2.67;1.23;;;15.30;99.90;;;;;;5051450;28;20020;-60
2022/07/12 02:33:05;;;;;;;1.60;1.15;;;15.10;99.90;;;;;;5046730;28;20029;-60
2022/07/12 02:35:31;;;;;;;1.42;1.10;;;15.10;99.90;;;;;;5048313;28;20036;-60
2022/07/12 02:37:57;;;;;;;1.63;1.40;;;15.20;99.90;;;;;;5045976;28;20135;-61
2022/07/12 02:43:06;;;;;;;1.65;1.40;;;15.10;99.90;;;;;;5046261;28;20298;-60
2022/07/12 02:45:32;;;;;;;2.40;1.30;;;15.40;99.90;;;;;;5034656;28;20028;-61
2022/07/12 02:47:57;;;;;;;3.63;1.27;;;15.10;99.90;;;;;;5052446;28;20029;-59
2022/07/12 02:50:23;;;;;;;2.40;1.25;;;15.10;99.90;;;;;;5046194;28;20028;-60
2022/07/12 02:52:49;;;;;;;4.00;1.40;;;15.00;99.90;;;;;;5049220;28;20028;-60
2022/07/12 02:55:14;;;;;;;2.70;1.30;;;15.10;99.90;;;;;;5048988;28;20038;-60
2022/07/12 02:57:40;;;;;;;1.20;1.10;;;15.10;99.90;;;;;;5042768;28;20457;-60
2022/07/12 03:00:07;;;;;;;1.50;1.13;;;15.10;99.90;;;;;;5039920;28;20032;-60
2022/07/12 03:02:33;;;;;;;1.20;1.10;;;15.00;99.90;;;;;;5042302;28;20539;-61
2022/07/12 03:04:58;;;;;;;1.40;1.08;;;14.90;99.90;;;;;;5044763;28;20037;-60
2022/07/12 03:07:24;;;;;;;1.80;1.02;;;14.90;99.90;;;;;;5046097;28;20063;-60
2022/07/12 03:09:49;;;;;;;0.80;0.75;;;14.60;99.90;;;;;;5044393;28;20034;-60
2022/07/12 03:12:15;;;;;;;1.38;0.70;;;14.80;99.90;;;;;;5045901;28;20027;-60
2022/07/12 03:14:40;;;;;;;1.30;0.98;;;14.90;99.90;;;;;;5049532;28;20086;-60
2022/07/12 03:17:06;;;;;;;1.85;1.00;;;14.70;99.90;;;;;;5041709;28;20060;-60
2022/07/12 03:19:32;;;;;;;1.65;0.82;;;14.70;99.90;;;;;;5042575;28;20021;-60
2022/07/12 03:21:57;;;;;;;1.15;0.70;;;14.80;99.90;;;;;;5050021;28;20033;-60
2022/07/12 03:24:23;;;;;;;2.70;0.85;;;14.60;99.90;;;;;;5047560;28;20117;-60
2022/07/12 03:26:48;;;;;;;1.20;0.80;;;14.80;99.90;;;;;;5048308;28;20036;-60
2022/07/12 03:29:15;;;;;;;1.08;0.77;;;14.80;99.90;;;;;;5048971;28;20040;-60
2022/07/12 03:31:41;;;;;;;2.03;0.88;;;15.10;99.90;;;;;;5045032;28;20385;-60
2022/07/12 03:34:06;;;;;;;1.63;0.88;;;14.60;99.90;;;;;;5052187;28;20029;-60
2022/07/12 03:36:32;;;;;;;0.73;0.70;;;14.60;99.90;;;;;;5051856;28;20082;-60
2022/07/12 03:38:57;;;;;;;2.97;0.77;;;14.50;99.90;;;;;;5042243;28;20028;-60
2022/07/12 03:41:23;;;;;;;3.33;0.82;;;14.50;99.90;;;;;;5044338;28;20087;-60
2022/07/12 03:43:49;;;;;;;3.22;1.00;;;14.60;99.90;;;;;;5045994;28;20334;-60
2022/07/12 03:46:15;;;;;;;3.45;1.10;;;14.50;99.90;;;;;;5047427;28;20521;-61
2022/07/12 03:48:40;;;;;;;1.65;1.00;;;14.50;99.90;;;;;;5044621;28;20017;-60
2022/07/12 03:51:06;;;;;;;0.95;0.85;;;14.60;99.90;;;;;;5044842;28;20025;-61
2022/07/12 03:53:31;;;;;;;1.55;1.00;;;14.50;99.90;;;;;;5047082;28;20032;-60
2022/07/12 03:55:57;;;;;;;1.25;0.77;;;14.60;99.90;;;;;;5045968;28;20040;-60
2022/07/12 03:58:22;;;;;;;1.17;1.05;;;14.60;99.90;;;;;;5046722;28;20056;-60
2022/07/12 04:00:48;;;;;;;2.92;1.00;;;14.80;99.90;;;;;;5048802;28;20029;-61
2022/07/12 04:03:14;;;;;;;4.10;1.30;;;14.90;99.90;;;;;;5048812;28;20355;-60
2022/07/12 04:05:39;;;;;;;1.10;0.95;;;14.80;99.90;;;;;;5046557;28;20100;-60
2022/07/12 04:08:05;;;;;;;1.05;0.95;;;14.70;99.90;;;;;;5037576;28;20550;-60
2022/07/12 04:10:32;;;;;;;1.05;1.00;;;14.80;99.90;;;;;;5041955;28;20241;-61
2022/07/12 04:12:57;;;;;;;3.78;1.10;;;14.60;99.90;;;;;;5044956;28;20028;-60
2022/07/12 04:15:23;;;;;;;1.50;1.30;;;14.60;99.90;;;;;;5044453;28;20408;-60
2022/07/12 04:17:48;;;;;;;2.83;1.33;;;14.70;99.90;;;;;;5050735;28;20021;-60
2022/07/12 04:20:14;;;;;;;2.70;1.38;;;14.60;99.90;;;;;;5049691;28;20039;-60
2022/07/12 04:22:40;;;;;;;1.50;1.20;;;14.80;99.90;;;;;;5049499;28;20032;-60
2022/07/12 04:25:07;;;;;;;1.55;1.15;;;14.70;99.90;;;;;;5046955;28;20024;-61
2022/07/12 04:27:33;;;;;;;2.22;1.27;;;14.70;99.90;;;;;;5043847;28;20578;-59
2022/07/12 04:29:58;;;;;;;2.47;1.40;;;14.80;99.90;;;;;;5051470;28;20444;-60
2022/07/12 04:32:24;;;;;;;3.75;1.50;;;14.90;99.90;;;;;;5055611;28;20127;-60
2022/07/12 04:34:49;;;;;;;2.70;1.27;;;14.90;99.90;;;;;;5055479;28;20028;-60
2022/07/12 04:37:15;;;;;;;2.78;1.70;;;14.90;99.90;;;;;;5051821;28;20459;-61
2022/07/12 04:39:41;;;;;;;1.73;1.45;;;15.00;99.90;;;;;;5044184;28;20376;-60
2022/07/12 04:42:06;;;;;;;2.25;1.70;;;14.90;99.90;;;;;;5049352;28;20507;-60
2022/07/12 04:44:32;;;;;;;3.15;1.70;;;15.10;99.90;;;;;;5044797;28;20036;-60
2022/07/12 04:46:57;;;;;;;2.33;2.13;;;15.10;99.90;;;;;;5043940;28;20028;-61
2022/07/12 04:49:23;;;;;;;2.85;2.55;;;15.10;99.90;;;;;;5046162;28;20024;-60
2022/07/12 04:51:49;;;;;;;2.67;2.42;;;15.20;99.90;;;;;;5050679;28;20111;-60
2022/07/12 04:54:14;;;;;;;2.90;2.47;;;15.30;99.90;;;;;;5049518;28;20076;-60
2022/07/12 04:56:40;;;;;;;4.40;3.13;;;15.30;99.90;;;;;;5043614;28;20036;-60
2022/07/12 04:59:06;;;;;;;3.97;3.30;;;15.30;99.90;;;;;;5047003;28;20063;-60
2022/07/12 05:01:32;;;;;;;4.90;3.22;;;15.50;99.90;;;;;;5050436;28;20032;-61
2022/07/12 05:03:58;;;;;;;6.03;4.25;;;15.50;99.90;;;;;;5057120;28;20124;-60
2022/07/12 05:06:24;;;;;;;8.13;5.78;;;15.80;99.90;;;;;;5042335;28;20510;-61
2022/07/12 05:08:50;;;;;;;7.30;5.68;;;15.90;99.90;;;;;;5047926;28;20021;-60
2022/07/12 05:11:15;;;;;;;8.18;6.60;;;16.00;99.90;;;;;;5047803;28;20435;-60
2022/07/12 05:13:41;;;;;;;7.05;6.10;;;16.20;99.90;;;;;;5047970;28;20029;-61
2022/07/12 05:16:08;;;;;;;9.77;6.60;;;16.10;99.90;;;;;;5048045;28;20082;-61
2022/07/12 05:18:34;;;;;;;10.32;6.93;;;16.30;99.90;;;;;;5040086;28;20592;-60
2022/07/12 05:21:00;;;;;;;15.55;8.70;;;16.20;99.90;;;;;;5047900;28;21138;-60
2022/07/12 05:23:26;;;;;;;10.75;9.65;;;16.30;99.90;;;;;;5045022;28;20261;-61
2022/07/12 05:25:51;;;;;;;15.88;13.73;;;16.60;99.90;;;;;;5050369;28;20035;-60
2022/07/12 05:28:17;;;;;;;17.45;14.75;;;16.70;99.90;;;;;;5050667;28;20032;-61
2022/07/12 05:30:43;;;;;;;19.40;16.70;;;;;;;;;;5047857;28;20106;-60
2022/07/12 05:33:09;;;;;;;19.67;16.25;;;17.10;99.90;;;;;;5049215;28;20085;-61
2022/07/12 05:35:35;;;;;;;19.48;14.93;;;17.10;99.90;;;;;;5056162;28;20029;-61
2022/07/12 05:38:01;;;;;;;17.13;14.60;;;17.20;99.90;;;;;;5046497;28;20025;-60
2022/07/12 05:40:27;;;;;;;16.35;13.77;;;17.20;99.90;;;;;;5040440;28;20032;-60
2022/07/12 05:42:52;;;;;;;15.23;13.55;;;17.20;99.90;;;;;;5046561;28;20024;-60
2022/07/12 05:45:18;;;;;;;19.70;12.70;;;17.20;99.90;;;;;;5050455;28;20634;-61
2022/07/12 05:47:43;;;;;;;14.18;11.57;;;17.30;99.90;;;;;;5041985;28;20108;-60
2022/07/12 05:50:09;;;;;;;13.07;10.68;;;17.40;99.90;;;;;;5050277;28;20102;-61
2022/07/12 05:55:19;;;;;;;20.85;10.70;;;17.70;99.90;;;;;;5050565;28;20039;-60
2022/07/12 05:57:45;;;;;;;12.98;10.98;;;17.80;99.90;;;;;;5044578;28;20025;-60
2022/07/12 06:00:11;;;;;;;13.93;10.38;;;18.00;99.90;;;;;;5046571;28;20024;-60
2022/07/12 06:02:36;;;;;;;13.95;10.52;;;18.10;99.90;;;;;;5045400;28;20032;-61
2022/07/12 06:05:02;;;;;;;14.27;10.38;;;18.20;99.90;;;;;;5039881;28;20037;-60
2022/07/12 06:07:27;;;;;;;12.25;10.43;;;18.30;99.90;;;;;;5045359;28;20021;-60
2022/07/12 06:09:53;;;;;;;14.23;10.43;;;18.20;99.90;;;;;;5048677;28;20457;-60
2022/07/12 06:12:19;;;;;;;14.85;9.77;;;18.30;99.90;;;;;;5041118;28;20034;-61
2022/07/12 06:14:44;;;;;;;14.15;10.13;;;18.40;99.90;;;;;;5044825;28;20251;-61
2022/07/12 06:17:10;;;;;;;12.90;9.68;;;18.40;99.90;;;;;;5045273;28;20070;-60
2022/07/12 06:19:35;;;;;;;12.07;10.13;;;18.50;99.90;;;;;;5049543;28;21296;-61
2022/07/12 06:22:01;;;;;;;13.45;9.32;;;18.60;99.90;;;;;;5043723;28;20234;-60
2022/07/12 06:24:27;;;;;;;12.57;9.40;;;18.70;99.90;;;;;;5034559;28;20773;-60
2022/07/12 06:26:52;;;;;;;12.75;8.57;;;18.70;99.90;;;;;;5049109;28;20433;-61
2022/07/12 06:29:18;;;;;;;11.70;8.23;;;18.70;99.90;;;;;;5046736;28;20491;-60
2022/07/12 06:31:43;;;;;;;9.80;7.80;;;18.90;99.90;;;;;;5046057;28;20061;-61
2022/07/12 06:34:09;;;;;;;10.45;7.47;;;19.00;99.90;;;;;;5048787;28;20820;-60
2022/07/12 06:36:34;;;;;;;8.60;7.28;;;19.10;99.90;;;;;;5046035;28;20525;-60
2022/07/12 06:39:00;;;;;;;9.18;7.82;;;19.20;99.90;;;;;;5042835;28;20056;-61
2022/07/12 06:41:25;;;;;;;12.55;8.68;;;19.30;99.90;;;;;;5043850;28;20033;-60
2022/07/12 06:43:51;;;;;;;9.45;7.80;;;19.60;99.90;;;;;;5042630;28;20048;-59
2022/07/12 06:46:16;;;;;;;9.65;6.25;;;19.50;99.90;;;;;;5040287;28;20028;-60
2022/07/12 06:48:42;;;;;;;11.35;8.43;;;19.60;99.90;;;;;;5039947;28;20621;-60
2022/07/12 06:51:07;;;;;;;11.75;7.13;;;19.60;99.90;;;;;;5049088;28;20434;-60
2022/07/12 06:53:33;;;;;;;11.05;6.88;;;19.70;99.90;;;;;;5037240;28;20457;-60
2022/07/12 06:55:58;;;;;;;12.95;6.70;;;20.00;99.90;;;;;;5042052;28;20075;-60
2022/07/12 06:58:24;;;;;;;9.60;6.68;;;20.00;99.90;;;;;;5044592;28;20083;-61
2022/07/12 07:00:50;;;;;;;10.82;6.57;;;20.00;99.90;;;;;;5044015;28;20488;-61
2022/07/12 07:03:15;;;;;;;10.60;6.20;;;20.10;99.90;;;;;;5047342;28;20566;-60
2022/07/12 07:05:41;;;;;;;9.70;6.68;;;20.10;99.90;;;;;;5034317;28;20507;-61
2022/07/12 07:08:06;;;;;;;9.35;6.63;;;20.30;99.90;;;;;;5041789;28;20071;-61
2022/07/12 07:10:33;;;;;;;9.85;7.05;;;20.40;99.90;;;;;;5045325;28;20079;-61
2022/07/12 07:12:59;;;;;;;7.95;6.20;;;20.50;99.90;;;;;;5035199;28;20033;-61
2022/07/12 07:15:25;;;;;;;8.25;6.57;;;20.50;99.90;;;;;;5037027;28;20044;-61
2022/07/12 07:17:51;;;;;;;7.75;6.00;;;20.40;99.90;;;;;;5042892;28;20037;-61
2022/07/12 07:20:17;;;;;;;8.48;5.82;;;20.60;99.90;;;;;;5042068;28;20508;-61
2022/07/12 07:22:42;;;;;;;8.48;5.63;;;20.90;99.90;;;;;;5044604;28;20029;-61
2022/07/12 07:25:08;;;;;;;6.72;5.53;;;20.80;99.90;;;;;;5046986;28;20024;-61
2022/07/12 07:27:34;;;;;;;7.28;6.00;;;21.10;99.90;;;;;;5045533;28;20021;-61
2022/07/12 07:32:44;;;;;;;10.02;6.00;;;21.00;99.90;;;;;;5038784;28;20036;-61
2022/07/12 07:35:10;;;;;;;8.05;6.25;;;21.20;99.90;;;;;;5049922;28;20078;-61
2022/07/12 07:37:36;;;;;;;7.13;5.20;;;21.30;99.90;;;;;;5036829;28;20482;-61
2022/07/12 07:40:02;;;;;;;6.25;4.75;;;21.30;99.90;;;;;;5045347;28;20029;-61
2022/07/12 07:42:28;;;;;;;5.85;4.78;;;21.30;99.90;;;;;;5042608;28;20094;-61
2022/07/12 07:44:53;;;;;;;7.00;5.10;;;21.40;99.90;;;;;;5055700;28;20033;-61
2022/07/12 07:47:19;;;;;;;6.10;5.10;;;21.30;99.90;;;;;;5030610;28;20112;-61
2022/07/12 07:49:44;;;;;;;8.73;5.72;;;21.30;99.90;;;;;;5037880;28;20104;-61
2022/07/12 07:52:10;;;;;;;7.40;6.05;;;21.50;99.90;;;;;;5040377;28;20028;-61
2022/07/12 07:54:36;;;;;;;7.82;6.00;;;21.60;99.90;;;;;;5050580;28;20021;-61
2022/07/12 07:57:01;;;;;;;8.98;5.97;;;21.80;99.90;;;;;;5032120;28;20087;-61
2022/07/12 07:59:27;;;;;;;8.20;5.68;;;22.00;99.90;;;;;;5041811;28;20032;-61
2022/07/12 08:01:52;;;;;;;39.70;34.00;;;21.50;99.90;;;;;;5036465;28;20033;-61
2022/07/12 08:04:19;;;;;;;8.25;6.18;;;21.70;99.90;;;;;;5032186;28;20373;-61
2022/07/12 08:06:46;;;;;;;9.10;6.20;;;21.90;99.90;;;;;;5037585;28;20040;-61
2022/07/12 08:09:13;;;;;;;6.47;5.35;;;21.80;99.90;;;;;;5034511;28;20407;-61
2022/07/12 08:11:39;;;;;;;7.70;6.60;;;21.80;99.90;;;;;;5033918;28;20029;-61
2022/07/12 08:14:05;;;;;;;9.25;6.47;;;21.80;99.90;;;;;;5044890;28;20035;-61
2022/07/12 08:16:32;;;;;;;9.45;6.22;;;21.50;99.90;;;;;;5043116;28;20163;-61
2022/07/12 08:18:57;;;;;;;6.63;5.25;;;21.50;99.90;;;;;;5032493;28;20021;-61
2022/07/12 08:21:23;;;;;;;8.73;5.05;;;21.70;99.90;;;;;;5037892;28;20047;-61
2022/07/12 08:23:50;;;;;;;8.52;5.20;;;21.90;99.90;;;;;;5034616;28;20035;-61
2022/07/12 08:26:16;;;;;;;8.48;5.30;;;22.40;99.90;;;;;;5039009;28;20067;-61
2022/07/12 08:28:41;;;;;;;6.97;4.88;;;22.30;99.90;;;;;;5047256;28;20056;-61
2022/07/12 08:31:07;;;;;;;5.05;4.50;;;22.50;99.90;;;;;;5048597;28;20027;-62
2022/07/12 08:33:33;;;;;;;4.93;3.95;;;22.50;99.90;;;;;;5036203;28;20112;-61
2022/07/12 08:35:59;;;;;;;4.72;3.25;;;22.40;99.90;;;;;;5049314;28;20127;-61
2022/07/12 08:38:24;;;;;;;5.82;3.40;;;22.60;99.90;;;;;;5043058;28;20067;-61
2022/07/12 08:40:50;;;;;;;4.28;2.78;;;22.70;99.90;;;;;;5051531;28;20017;-61
2022/07/12 08:43:15;;;;;;;6.32;3.45;;;22.80;99.90;;;;;;5043185;28;20079;-61
2022/07/12 08:45:41;;;;;;;6.18;3.60;;;22.80;99.90;;;;;;5039283;28;20084;-62
2022/07/12 08:48:07;;;;;;;3.85;3.13;;;22.70;99.90;;;;;;5044512;28;20036;-62
2022/07/12 08:50:33;;;;;;;7.93;3.22;;;22.70;99.90;;;;;;5052761;28;20024;-62
2022/07/12 08:52:59;;;;;;;6.20;2.88;;;22.80;99.90;;;;;;5052137;28;20440;-61
2022/07/12 08:55:30;;;;;;;4.55;3.10;;;23.00;99.90;;;;;;5030516;28;20487;-62
2022/07/12 08:57:57;;;;;;;6.65;2.25;;;23.00;99.90;;;;;;5038377;28;20021;-61
2022/07/12 09:00:26;;;;;;;3.13;2.38;;;23.10;99.90;;;;;;5045528;28;20032;-61
2022/07/12 09:02:55;;;;;;;5.57;2.92;;;23.20;99.90;;;;;;5048515;28;20033;-61
2022/07/12 09:05:23;;;;;;;4.05;3.10;;;23.20;99.90;;;;;;5033329;28;20373;-61
2022/07/12 09:07:50;;;;;;;5.85;3.08;;;23.30;99.90;;;;;;5043730;28;20022;-62
2022/07/12 09:10:16;;;;;;;5.95;2.60;;;23.20;99.90;;;;;;5051479;28;20040;-61
2022/07/12 09:12:43;;;;;;;5.57;3.70;;;23.50;99.90;;;;;;5044501;28;20028;-61
2022/07/12 09:15:14;;;;;;;7.00;3.30;;;23.50;99.90;;;;;;5051866;28;20024;-61
2022/07/12 09:17:46;;;;;;;4.18;2.80;;;23.40;99.90;;;;;;5043397;28;20033;-61
2022/07/12 09:20:11;;;;;;;3.60;2.80;;;23.30;99.90;;;;;;5044623;28;20457;-61
2022/07/12 09:22:37;;;;;;;3.70;2.22;;;23.40;99.90;;;;;;5039842;28;20094;-62
2022/07/12 09:25:17;;;;;;;4.05;2.58;;;23.50;99.90;;;;;;5052399;28;20033;-62
2022/07/12 09:27:48;;;;;;;4.10;2.35;;;23.60;99.90;;;;;;5040399;28;20059;-62
2022/07/12 09:30:14;;;;;;;3.70;3.10;;;23.70;99.90;;;;;;5041949;28;20052;-62
2022/07/12 09:36:06;;;;;;;3.08;2.60;;;23.30;99.90;;;;;;5043190;28;20048;-61
2022/07/12 09:39:01;;;;;;;3.30;2.22;;;23.40;99.90;;;;;;5047882;28;20040;-61
2022/07/12 09:41:27;;;;;;;3.85;2.25;;;23.50;99.90;;;;;;5045495;28;20420;-62
2022/07/12 09:43:53;;;;;;;2.53;2.28;;;23.60;99.90;;;;;;5054460;28;20055;-62
2022/07/12 09:46:19;;;;;;;3.58;2.45;;;23.90;99.90;;;;;;5045384;28;20494;-62
2022/07/12 09:48:45;;;;;;;2.20;1.88;;;24.20;99.90;;;;;;5045448;28;20094;-62
2022/07/12 09:51:17;;;;;;;12.23;3.45;;;24.30;99.90;;;;;;5050426;28;20205;-62
2022/07/12 09:53:47;;;;;;;6.60;3.00;;;24.10;99.90;;;;;;5043472;28;20029;-61
2022/07/12 09:56:15;;;;;;;4.97;1.90;;;24.00;99.90;;;;;;5043301;28;20708;-61
2022/07/12 09:58:47;;;;;;;2.00;1.80;;;24.20;99.90;;;;;;5046776;28;21310;-62
2022/07/12 10:01:15;;;;;;;4.68;2.28;;;24.20;99.90;;;;;;5044367;28;20664;-62
2022/07/12 10:03:42;;;;;;;5.97;2.10;;;24.30;99.90;;;;;;5038248;28;20835;-62
2022/07/12 10:06:09;;;;;;;3.25;1.90;;;24.40;99.90;;;;;;5056180;28;20056;-62
2022/07/12 10:08:35;;;;;;;6.55;2.00;;;24.30;99.90;;;;;;5041220;28;20064;-62
2022/07/12 10:11:01;;;;;;;3.17;2.20;;;24.20;99.90;;;;;;5041689;28;20028;-62
2022/07/12 10:13:27;;;;;;;3.22;2.03;;;24.40;99.90;;;;;;5045290;28;20032;-62
2022/07/12 10:16:00;;;;;;;4.78;2.00;;;24.40;99.90;;;;;;5039084;28;20389;-62
2022/07/12 10:18:26;;;;;;;4.40;2.15;;;24.60;99.90;;;;;;5045478;28;20020;-62
2022/07/12 10:20:52;;;;;;;2.47;2.03;;;24.60;99.90;;;;;;5045325;28;20104;-62
2022/07/12 10:23:17;;;;;;;7.32;3.67;;;24.70;99.90;;;;;;5045071;28;20086;-61
2022/07/12 10:25:43;;;;;;;1.58;1.48;;;24.80;99.90;;;;;;5044180;28;20028;-62
2022/07/12 10:28:08;;;;;;;3.85;1.80;;;24.80;99.90;;;;;;5046904;28;20121;-62
2022/07/12 10:30:47;;;;;;;2.97;1.80;;;25.00;99.90;;;;;;5054056;28;20024;-61
2022/07/12 10:33:22;;;;;;;3.97;1.80;;;25.70;99.90;;;;;;5045140;28;20047;-61
2022/07/12 10:35:57;;;;;;;3.60;2.13;;;24.60;99.90;;;;;;5048119;28;20068;-61
2022/07/12 10:38:23;;;;;;;2.30;1.83;;;24.80;99.90;;;;;;5033990;28;20021;-62
2022/07/12 10:40:50;;;;;;;6.03;2.33;;;25.00;99.90;;;;;;5044143;28;20468;-61
2022/07/12 10:43:17;;;;;;;3.50;2.40;;;24.90;99.90;;;;;;5037425;28;20033;-61
2022/07/12 10:45:44;;;;;;;7.07;2.75;;;24.80;99.90;;;;;;5048468;28;20057;-62
2022/07/12 10:48:13;;;;;;;4.07;2.50;;;24.80;99.90;;;;;;5042004;28;20025;-61
2022/07/12 10:50:42;;;;;;;3.05;2.40;;;24.80;99.90;;;;;;5044088;28;20033;-61
2022/07/12 10:53:22;;;;;;;4.30;2.50;;;24.60;99.90;;;;;;5046991;28;20024;-61
2022/07/12 10:56:10;;;;;;;4.38;2.80;;;24.80;99.90;;;;;;5045102;28;20036;-61
2022/07/12 10:58:52;;;;;;;3.38;3.08;;;25.00;99.90;;;;;;5042443;28;20020;-61
2022/07/12 11:01:20;;;;;;;3.13;2.70;;;25.20;99.90;;;;;;5044452;28;20032;-62
2022/07/12 11:03:47;;;;;;;7.95;4.43;;;24.90;99.90;;;;;;5039930;28;20026;-61
2022/07/12 11:06:17;;;;;;;4.00;3.10;;;25.00;99.90;;;;;;5040635;28;20425;-61
2022/07/12 11:08:51;;;;;;;8.40;4.22;;;25.20;99.90;;;;;;5045658;28;20170;-61
2022/07/12 11:11:17;;;;;;;7.03;3.20;;;25.50;99.90;;;;;;5035572;28;20493;-61
2022/07/12 11:13:43;;;;;;;24.65;15.38;;;25.20;99.90;;;;;;5045843;28;20486;-61
2022/07/12 11:16:08;;;;;;;6.65;4.38;;;25.40;99.90;;;;;;5045610;28;20028;-61
2022/07/12 11:18:35;;;;;;;4.20;3.50;;;25.70;99.90;;;;;;5042307;28;20028;-61
2022/07/12 11:21:02;;;;;;;6.93;3.38;;;25.50;99.90;;;;;;5047303;28;20060;-62
2022/07/12 11:23:29;;;;;;;8.88;6.07;;;26.60;99.90;;;;;;5047348;28;20548;-61
2022/07/12 11:25:56;;;;;;;8.43;5.72;;;25.40;99.90;;;;;;5048086;28;20123;-62
2022/07/12 11:28:24;;;;;;;3.83;3.00;;;25.70;99.90;;;;;;5043097;28;20495;-61
2022/07/12 11:30:53;;;;;;;7.68;5.63;;;25.70;99.90;;;;;;5047948;28;20436;-61
2022/07/12 11:33:26;;;;;;;4.45;3.13;;;25.70;99.90;;;;;;5043418;28;20059;-61
2022/07/12 11:35:52;;;;;;;3.97;2.75;;;25.60;99.90;;;;;;5049830;28;20037;-61
2022/07/12 11:38:25;;;;;;;3.42;2.97;;;25.50;99.90;;;;;;5043363;28;20609;-61
2022/07/12 11:41:09;;;;;;;;;;;25.70;99.90;;;;;;5047047;28;20032;-61
2022/07/12 11:43:36;;;;;;;7.57;5.50;;;25.90;99.90;;;;;;5040023;28;19920;-61
2022/07/12 11:46:04;;;;;;;4.05;3.03;;;26.10;99.90;;;;;;5043814;28;20075;-61
2022/07/12 11:48:32;;;;;;;6.30;4.07;;;26.20;99.90;;;;;;5040431;28;20028;-61
2022/07/12 11:51:05;;;;;;;10.95;7.68;;;26.30;99.90;;;;;;5049160;28;20017;-61
2022/07/12 11:53:31;;;;;;;21.63;14.18;;;26.20;99.90;;;;;;5044694;28;20043;-62
2022/07/12 11:55:59;;;;;;;4.45;3.38;;;26.10;99.90;;;;;;5043250;28;20029;-61
2022/07/12 11:58:26;;;;;;;4.65;3.10;;;26.30;99.90;;;;;;5033853;28;20465;-61
2022/07/12 12:00:53;;;;;;;5.90;2.70;;;26.30;99.90;;;;;;5041950;28;20025;-61
2022/07/12 12:03:21;;;;;;;4.95;3.20;;;26.10;99.90;;;;;;5039181;28;20075;-62
2022/07/12 12:05:48;;;;;;;6.22;3.08;;;26.10;99.90;;;;;;5028973;28;20497;-61
2022/07/12 12:08:15;;;;;;;3.83;2.72;;;26.10;99.90;;;;;;5037446;28;20531;-61
2022/07/12 12:10:42;;;;;;;3.22;2.72;;;26.10;99.90;;;;;;5038199;28;20036;-62
2022/07/12 12:13:18;;;;;;;5.85;2.40;;;26.00;99.90;;;;;;5044055;28;20032;-62
2022/07/12 12:15:51;;;;;;;4.07;2.95;;;26.10;99.90;;;;;;5038795;28;20598;-62
2022/07/12 12:18:27;;;;;;;;;;;26.10;99.90;;;;;;5041043;28;20029;-61
2022/07/12 12:20:58;;;;;;;4.18;3.15;;;26.20;99.90;;;;;;5047755;28;19912;-61
2022/07/12 12:23:23;;;;;;;4.53;3.13;;;26.30;99.90;;;;;;5049212;28;20032;-62
2022/07/12 12:25:49;;;;;;;5.55;2.90;;;26.00;99.90;;;;;;5047134;28;20013;-61
2022/07/12 12:28:15;;;;;;;4.40;2.88;;;25.90;99.90;;;;;;5047599;28;20052;-61
2022/07/12 12:30:55;;;;;;;16.45;10.18;;;26.00;99.90;;;;;;5048414;28;20097;-61
2022/07/12 12:33:34;;;;;;;4.25;3.30;;;26.40;99.90;;;;;;5045278;28;20036;-62
2022/07/12 12:36:15;;;;;;;3.35;2.88;;;26.30;99.90;;;;;;5047807;28;20025;-61
2022/07/12 12:38:42;;;;;;;4.20;2.67;;;26.40;99.90;;;;;;5043113;28;20076;-62
2022/07/12 12:41:08;;;;;;;4.00;3.00;;;26.50;99.90;;;;;;5059204;28;20025;-61
2022/07/12 12:43:34;;;;;;;5.28;2.90;;;26.40;99.90;;;;;;5054218;28;20096;-61
2022/07/12 12:46:00;;;;;;;3.83;3.00;;;26.40;99.90;;;;;;5051461;28;20029;-61
2022/07/12 12:48:27;;;;;;;3.58;2.92;;;26.40;99.90;;;;;;5045077;28;20110;-61
2022/07/12 12:51:01;;;;;;;4.18;2.83;;;26.60;99.90;;;;;;5043848;28;20508;-62
2022/07/12 12:53:27;;;;;;;5.95;2.50;;;26.60;99.90;;;;;;5048393;28;20111;-61
2022/07/12 12:55:54;;;;;;;4.00;2.78;;;26.50;99.90;;;;;;5047545;28;20025;-61